sensor_id;sensor_type;location;lat;lon;timestamp;pressure;altitude;pressure_sealevel;temperature;humidity
74103;BME280;62853;46.166;3.640;2023-07-20T00:00:44;101261.63;;;16.88;100.00
74103;BME280;62853;46.166;3.640;2023-07-20T00:03:11;101260.16;;;16.84;100.00
74103;BME280;62853;46.166;3.640;2023-07-20T00:05:43;101262.06;;;16.82;100.00
74103;BME280;62853;46.166;3.640;2023-07-20T00:08:08;101261.88;;;16.85;100.00
74103;BME280;62853;46.166;3.640;2023-07-20T00:10:34;101261.69;;;16.75;100.00
74103;BME280;62853;46.166;3.640;2023-07-20T00:12:59;101260.44;;;16.68;100.00
74103;BME280;62853;46.166;3.640;2023-07-20T00:15:24;101260.56;;;16.66;100.00
74103;BME280;62853;46.166;3.640;2023-07-20T00:17:50;101254.59;;;16.63;100.00
74103;BME280;62853;46.166;3.640;2023-07-20T00:20:15;101260.66;;;16.65;100.00
74103;BME280;62853;46.166;3.640;2023-07-20T00:22:40;101263.94;;;16.44;100.00
74103;BME280;62853;46.166;3.640;2023-07-20T00:25:06;101261.81;;;16.49;100.00
74103;BME280;62853;46.166;3.640;2023-07-20T00:27:31;101261.81;;;16.49;100.00
74103;BME280;62853;46.166;3.640;2023-07-20T00:29:57;101262.88;;;16.34;100.00
74103;BME280;62853;46.166;3.640;2023-07-20T00:32:22;101259.00;;;16.27;100.00
74103;BME280;62853;46.166;3.640;2023-07-20T00:34:48;101262.28;;;16.30;100.00
74103;BME280;62853;46.166;3.640;2023-07-20T00:37:13;101258.16;;;16.26;100.00
74103;BME280;62853;46.166;3.640;2023-07-20T00:39:38;101267.06;;;16.25;100.00
74103;BME280;62853;46.166;3.640;2023-07-20T00:42:04;101264.94;;;16.30;100.00
74103;BME280;62853;46.166;3.640;2023-07-20T00:44:30;101257.81;;;16.31;100.00
74103;BME280;62853;46.166;3.640;2023-07-20T00:46:55;101258.66;;;16.31;100.00
74103;BME280;62853;46.166;3.640;2023-07-20T00:49:20;101262.63;;;16.26;100.00
74103;BME280;62853;46.166;3.640;2023-07-20T00:51:48;101261.25;;;16.20;100.00
74103;BME280;62853;46.166;3.640;2023-07-20T00:54:14;101269.78;;;16.12;100.00
74103;BME280;62853;46.166;3.640;2023-07-20T00:56:40;101270.72;;;16.11;100.00
74103;BME280;62853;46.166;3.640;2023-07-20T00:59:06;101276.97;;;16.10;100.00
74103;BME280;62853;46.166;3.640;2023-07-20T01:01:32;101269.56;;;16.03;100.00
74103;BME280;62853;46.166;3.640;2023-07-20T01:03:58;101267.75;;;16.03;100.00
74103;BME280;62853;46.166;3.640;2023-07-20T01:06:54;101269.06;;;15.97;100.00
74103;BME280;62853;46.166;3.640;2023-07-20T01:09:32;101276.16;;;15.97;100.00
74103;BME280;62853;46.166;3.640;2023-07-20T01:12:03;101276.81;;;16.01;100.00
74103;BME280;62853;46.166;3.640;2023-07-20T01:14:31;101277.34;;;15.93;100.00
74103;BME280;62853;46.166;3.640;2023-07-20T01:16:57;101281.81;;;15.92;100.00
74103;BME280;62853;46.166;3.640;2023-07-20T01:19:22;101281.25;;;16.00;100.00
74103;BME280;62853;46.166;3.640;2023-07-20T01:21:55;101283.59;;;15.92;100.00
74103;BME280;62853;46.166;3.640;2023-07-20T01:32:27;101283.28;;;16.09;100.00
74103;BME280;62853;46.166;3.640;2023-07-20T01:34:54;101279.53;;;16.12;100.00
74103;BME280;62853;46.166;3.640;2023-07-20T01:37:22;101272.94;;;16.17;100.00
74103;BME280;62853;46.166;3.640;2023-07-20T01:39:53;101275.84;;;16.02;100.00
74103;BME280;62853;46.166;3.640;2023-07-20T01:42:21;101266.06;;;16.02;100.00
74103;BME280;62853;46.166;3.640;2023-07-20T01:44:50;101269.47;;;16.04;100.00
74103;BME280;62853;46.166;3.640;2023-07-20T01:47:16;101277.88;;;15.85;100.00
74103;BME280;62853;46.166;3.640;2023-07-20T01:49:41;101273.94;;;15.91;100.00
74103;BME280;62853;46.166;3.640;2023-07-20T01:52:07;101282.66;;;15.93;100.00
74103;BME280;62853;46.166;3.640;2023-07-20T01:54:32;101284.03;;;15.98;100.00
74103;BME280;62853;46.166;3.640;2023-07-20T01:56:58;101282.09;;;16.13;100.00
74103;BME280;62853;46.166;3.640;2023-07-20T01:59:23;101283.16;;;16.11;100.00
74103;BME280;62853;46.166;3.640;2023-07-20T02:01:48;101280.47;;;16.24;100.00
74103;BME280;62853;46.166;3.640;2023-07-20T02:04:14;101280.75;;;16.32;100.00
74103;BME280;62853;46.166;3.640;2023-07-20T02:06:39;101278.84;;;16.34;100.00
74103;BME280;62853;46.166;3.640;2023-07-20T02:09:04;101274.72;;;16.30;100.00
74103;BME280;62853;46.166;3.640;2023-07-20T02:11:30;101283.31;;;16.33;100.00
74103;BME280;62853;46.166;3.640;2023-07-20T02:13:55;101282.06;;;16.26;100.00
74103;BME280;62853;46.166;3.640;2023-07-20T02:16:21;101284.91;;;16.36;100.00
74103;BME280;62853;46.166;3.640;2023-07-20T02:18:46;101281.50;;;16.34;100.00
74103;BME280;62853;46.166;3.640;2023-07-20T02:21:11;101280.34;;;16.38;100.00
74103;BME280;62853;46.166;3.640;2023-07-20T02:23:37;101288.94;;;16.42;100.00
74103;BME280;62853;46.166;3.640;2023-07-20T02:26:02;101289.56;;;16.45;100.00
74103;BME280;62853;46.166;3.640;2023-07-20T02:28:27;101280.16;;;16.52;100.00
74103;BME280;62853;46.166;3.640;2023-07-20T02:30:54;101287.19;;;16.53;100.00
74103;BME280;62853;46.166;3.640;2023-07-20T02:33:19;101286.75;;;16.60;100.00
74103;BME280;62853;46.166;3.640;2023-07-20T02:35:46;101293.97;;;16.58;100.00
74103;BME280;62853;46.166;3.640;2023-07-20T02:38:11;101287.81;;;16.57;100.00
74103;BME280;62853;46.166;3.640;2023-07-20T02:40:37;101293.13;;;16.57;100.00
74103;BME280;62853;46.166;3.640;2023-07-20T02:43:02;101298.34;;;16.59;100.00
74103;BME280;62853;46.166;3.640;2023-07-20T02:45:27;101297.72;;;16.55;100.00
74103;BME280;62853;46.166;3.640;2023-07-20T02:47:53;101299.28;;;16.58;100.00
74103;BME280;62853;46.166;3.640;2023-07-20T02:50:18;101300.88;;;16.60;100.00
74103;BME280;62853;46.166;3.640;2023-07-20T02:52:44;101299.44;;;16.56;100.00
74103;BME280;62853;46.166;3.640;2023-07-20T02:55:09;101309.59;;;16.62;100.00
74103;BME280;62853;46.166;3.640;2023-07-20T02:57:35;101306.00;;;16.63;100.00
74103;BME280;62853;46.166;3.640;2023-07-20T03:00:01;101314.81;;;16.64;100.00
74103;BME280;62853;46.166;3.640;2023-07-20T03:02:30;101318.56;;;16.61;100.00
74103;BME280;62853;46.166;3.640;2023-07-20T03:04:55;101315.66;;;16.64;100.00
74103;BME280;62853;46.166;3.640;2023-07-20T03:07:22;101313.75;;;16.66;100.00
74103;BME280;62853;46.166;3.640;2023-07-20T03:09:47;101317.25;;;16.67;100.00
74103;BME280;62853;46.166;3.640;2023-07-20T03:12:13;101322.34;;;16.70;100.00
74103;BME280;62853;46.166;3.640;2023-07-20T03:14:39;101326.59;;;16.72;100.00
74103;BME280;62853;46.166;3.640;2023-07-20T03:17:04;101331.28;;;16.69;100.00
74103;BME280;62853;46.166;3.640;2023-07-20T03:19:30;101332.88;;;16.71;100.00
74103;BME280;62853;46.166;3.640;2023-07-20T03:21:55;101328.50;;;16.70;100.00
74103;BME280;62853;46.166;3.640;2023-07-20T03:24:20;101326.19;;;16.66;100.00
74103;BME280;62853;46.166;3.640;2023-07-20T03:26:46;101328.41;;;16.72;100.00
74103;BME280;62853;46.166;3.640;2023-07-20T03:29:11;101323.75;;;16.63;100.00
74103;BME280;62853;46.166;3.640;2023-07-20T03:31:37;101328.72;;;16.67;100.00
74103;BME280;62853;46.166;3.640;2023-07-20T03:34:02;101328.84;;;16.66;100.00
74103;BME280;62853;46.166;3.640;2023-07-20T03:36:27;101330.44;;;16.68;100.00
74103;BME280;62853;46.166;3.640;2023-07-20T03:38:53;101330.16;;;16.60;100.00
74103;BME280;62853;46.166;3.640;2023-07-20T03:41:18;101342.72;;;16.58;100.00
74103;BME280;62853;46.166;3.640;2023-07-20T03:43:45;101345.59;;;16.55;100.00
74103;BME280;62853;46.166;3.640;2023-07-20T03:46:10;101340.69;;;16.49;100.00
74103;BME280;62853;46.166;3.640;2023-07-20T03:48:36;101342.31;;;16.51;100.00
74103;BME280;62853;46.166;3.640;2023-07-20T03:51:01;101343.25;;;16.50;100.00
74103;BME280;62853;46.166;3.640;2023-07-20T03:53:26;101353.03;;;16.50;100.00
74103;BME280;62853;46.166;3.640;2023-07-20T03:55:53;101350.38;;;16.50;100.00
74103;BME280;62853;46.166;3.640;2023-07-20T03:58:19;101349.88;;;16.45;100.00
74103;BME280;62853;46.166;3.640;2023-07-20T04:00:49;101353.47;;;16.44;100.00
74103;BME280;62853;46.166;3.640;2023-07-20T04:03:16;101355.06;;;16.46;100.00
74103;BME280;62853;46.166;3.640;2023-07-20T04:05:42;101352.72;;;16.54;100.00
74103;BME280;62853;46.166;3.640;2023-07-20T04:08:08;101356.84;;;16.59;100.00
74103;BME280;62853;46.166;3.640;2023-07-20T04:10:34;101357.25;;;16.65;100.00
74103;BME280;62853;46.166;3.640;2023-07-20T04:13:00;101351.50;;;16.71;100.00
74103;BME280;62853;46.166;3.640;2023-07-20T04:15:25;101347.13;;;16.70;100.00
74103;BME280;62853;46.166;3.640;2023-07-20T04:17:51;101352.97;;;16.76;100.00
74103;BME280;62853;46.166;3.640;2023-07-20T04:20:16;101346.28;;;16.70;100.00
74103;BME280;62853;46.166;3.640;2023-07-20T04:22:43;101352.13;;;16.75;100.00
74103;BME280;62853;46.166;3.640;2023-07-20T04:25:09;101350.94;;;16.79;100.00
74103;BME280;62853;46.166;3.640;2023-07-20T04:27:35;101357.13;;;16.80;100.00
74103;BME280;62853;46.166;3.640;2023-07-20T04:30:01;101362.19;;;16.83;100.00
74103;BME280;62853;46.166;3.640;2023-07-20T04:32:27;101366.16;;;16.90;100.00
74103;BME280;62853;46.166;3.640;2023-07-20T04:34:52;101361.34;;;16.95;100.00
74103;BME280;62853;46.166;3.640;2023-07-20T04:37:18;101364.13;;;16.94;100.00
74103;BME280;62853;46.166;3.640;2023-07-20T04:39:43;101356.75;;;16.97;100.00
74103;BME280;62853;46.166;3.640;2023-07-20T04:42:08;101363.03;;;16.96;100.00
74103;BME280;62853;46.166;3.640;2023-07-20T04:44:34;101367.41;;;16.97;100.00
74103;BME280;62853;46.166;3.640;2023-07-20T04:46:59;101360.38;;;16.96;100.00
74103;BME280;62853;46.166;3.640;2023-07-20T04:49:25;101352.84;;;16.90;100.00
74103;BME280;62853;46.166;3.640;2023-07-20T04:51:51;101362.28;;;16.81;100.00
74103;BME280;62853;46.166;3.640;2023-07-20T04:54:16;101358.50;;;16.72;100.00
74103;BME280;62853;46.166;3.640;2023-07-20T04:56:43;101354.28;;;16.70;100.00
74103;BME280;62853;46.166;3.640;2023-07-20T04:59:09;101357.78;;;16.70;100.00
74103;BME280;62853;46.166;3.640;2023-07-20T05:01:34;101354.28;;;16.70;100.00
74103;BME280;62853;46.166;3.640;2023-07-20T05:03:59;101355.91;;;16.60;100.00
74103;BME280;62853;46.166;3.640;2023-07-20T05:06:25;101356.13;;;16.57;100.00
74103;BME280;62853;46.166;3.640;2023-07-20T05:08:51;101362.28;;;16.57;100.00
74103;BME280;62853;46.166;3.640;2023-07-20T05:11:16;101357.16;;;16.54;100.00
74103;BME280;62853;46.166;3.640;2023-07-20T05:13:41;101356.66;;;16.49;100.00
74103;BME280;62853;46.166;3.640;2023-07-20T05:16:07;101358.78;;;16.57;100.00
74103;BME280;62853;46.166;3.640;2023-07-20T05:18:32;101359.19;;;16.50;100.00
74103;BME280;62853;46.166;3.640;2023-07-20T05:20:57;101370.69;;;16.51;100.00
74103;BME280;62853;46.166;3.640;2023-07-20T05:23:23;101359.72;;;16.55;100.00
74103;BME280;62853;46.166;3.640;2023-07-20T05:25:56;101369.63;;;16.53;100.00
74103;BME280;62853;46.166;3.640;2023-07-20T05:28:22;101364.53;;;16.50;100.00
74103;BME280;62853;46.166;3.640;2023-07-20T05:30:48;101362.59;;;16.52;100.00
74103;BME280;62853;46.166;3.640;2023-07-20T05:33:13;101364.94;;;16.57;100.00
74103;BME280;62853;46.166;3.640;2023-07-20T05:35:39;101374.56;;;16.71;100.00
74103;BME280;62853;46.166;3.640;2023-07-20T05:38:04;101376.69;;;16.79;100.00
74103;BME280;62853;46.166;3.640;2023-07-20T05:40:30;101380.41;;;16.89;100.00
74103;BME280;62853;46.166;3.640;2023-07-20T05:42:56;101377.59;;;17.03;100.00
74103;BME280;62853;46.166;3.640;2023-07-20T05:45:22;101381.16;;;17.15;100.00
74103;BME280;62853;46.166;3.640;2023-07-20T05:47:47;101390.88;;;17.52;100.00
74103;BME280;62853;46.166;3.640;2023-07-20T05:50:13;101393.31;;;17.90;100.00
74103;BME280;62853;46.166;3.640;2023-07-20T05:52:39;101386.94;;;18.27;100.00
74103;BME280;62853;46.166;3.640;2023-07-20T05:55:06;101388.16;;;18.45;100.00
74103;BME280;62853;46.166;3.640;2023-07-20T05:57:32;101391.41;;;18.49;100.00
74103;BME280;62853;46.166;3.640;2023-07-20T05:59:57;101395.53;;;18.30;100.00
74103;BME280;62853;46.166;3.640;2023-07-20T06:02:23;101389.47;;;18.17;100.00
74103;BME280;62853;46.166;3.640;2023-07-20T06:04:48;101383.63;;;18.00;100.00
74103;BME280;62853;46.166;3.640;2023-07-20T06:07:14;101381.94;;;17.99;100.00
74103;BME280;62853;46.166;3.640;2023-07-20T06:09:40;101384.09;;;17.94;100.00
74103;BME280;62853;46.166;3.640;2023-07-20T06:12:06;101393.06;;;17.93;100.00
74103;BME280;62853;46.166;3.640;2023-07-20T06:14:31;101394.59;;;17.84;100.00
74103;BME280;62853;46.166;3.640;2023-07-20T06:16:57;101391.59;;;17.89;100.00
74103;BME280;62853;46.166;3.640;2023-07-20T06:19:22;101402.59;;;17.84;100.00
74103;BME280;62853;46.166;3.640;2023-07-20T06:21:48;101403.34;;;17.87;100.00
74103;BME280;62853;46.166;3.640;2023-07-20T06:24:14;101406.22;;;17.83;100.00
74103;BME280;62853;46.166;3.640;2023-07-20T06:26:40;101398.78;;;18.00;100.00
74103;BME280;62853;46.166;3.640;2023-07-20T06:29:05;101406.50;;;17.92;100.00
74103;BME280;62853;46.166;3.640;2023-07-20T06:31:35;101400.03;;;17.83;100.00
74103;BME280;62853;46.166;3.640;2023-07-20T06:34:01;101396.50;;;17.82;100.00
74103;BME280;62853;46.166;3.640;2023-07-20T06:36:26;101396.78;;;17.79;100.00
74103;BME280;62853;46.166;3.640;2023-07-20T06:38:52;101398.44;;;17.80;100.00
74103;BME280;62853;46.166;3.640;2023-07-20T06:41:18;101394.25;;;17.89;100.00
74103;BME280;62853;46.166;3.640;2023-07-20T06:43:44;101392.28;;;17.80;100.00
74103;BME280;62853;46.166;3.640;2023-07-20T06:46:09;101395.19;;;17.77;100.00
74103;BME280;62853;46.166;3.640;2023-07-20T06:48:34;101395.91;;;17.79;100.00
74103;BME280;62853;46.166;3.640;2023-07-20T06:51:00;101402.09;;;17.79;100.00
74103;BME280;62853;46.166;3.640;2023-07-20T06:53:25;101406.63;;;17.90;100.00
74103;BME280;62853;46.166;3.640;2023-07-20T06:55:50;101407.59;;;17.89;100.00
74103;BME280;62853;46.166;3.640;2023-07-20T06:58:16;101409.59;;;17.85;100.00
74103;BME280;62853;46.166;3.640;2023-07-20T07:00:43;101412.19;;;17.87;100.00
74103;BME280;62853;46.166;3.640;2023-07-20T07:03:08;101409.91;;;17.94;100.00
74103;BME280;62853;46.166;3.640;2023-07-20T07:05:37;101417.59;;;17.85;100.00
74103;BME280;62853;46.166;3.640;2023-07-20T07:08:04;101414.09;;;17.85;100.00
74103;BME280;62853;46.166;3.640;2023-07-20T07:10:30;101413.41;;;17.94;100.00
74103;BME280;62853;46.166;3.640;2023-07-20T07:12:55;101419.59;;;18.06;100.00
74103;BME280;62853;46.166;3.640;2023-07-20T07:15:21;101418.41;;;18.10;100.00
74103;BME280;62853;46.166;3.640;2023-07-20T07:17:46;101419.28;;;18.22;100.00
74103;BME280;62853;46.166;3.640;2023-07-20T07:20:11;101420.50;;;18.40;100.00
74103;BME280;62853;46.166;3.640;2023-07-20T07:22:37;101428.63;;;18.50;100.00
74103;BME280;62853;46.166;3.640;2023-07-20T07:25:03;101419.16;;;18.57;100.00
74103;BME280;62853;46.166;3.640;2023-07-20T07:27:29;101416.50;;;18.57;100.00
74103;BME280;62853;46.166;3.640;2023-07-20T07:29:54;101414.91;;;18.66;100.00
74103;BME280;62853;46.166;3.640;2023-07-20T07:32:20;101416.16;;;19.28;100.00
74103;BME280;62853;46.166;3.640;2023-07-20T07:34:46;101419.66;;;20.24;100.00
74103;BME280;62853;46.166;3.640;2023-07-20T07:37:13;101411.81;;;21.43;100.00
74103;BME280;62853;46.166;3.640;2023-07-20T07:39:39;101409.81;;;22.97;100.00
74103;BME280;62853;46.166;3.640;2023-07-20T07:42:05;101413.00;;;24.08;96.34
74103;BME280;62853;46.166;3.640;2023-07-20T07:44:30;101412.66;;;25.39;95.10
74103;BME280;62853;46.166;3.640;2023-07-20T07:46:56;101422.75;;;25.37;71.49
74103;BME280;62853;46.166;3.640;2023-07-20T07:49:21;101415.84;;;25.68;75.23
74103;BME280;62853;46.166;3.640;2023-07-20T07:51:46;101423.59;;;26.60;82.94
74103;BME280;62853;46.166;3.640;2023-07-20T07:54:12;101416.75;;;27.12;62.55
74103;BME280;62853;46.166;3.640;2023-07-20T07:56:37;101415.56;;;27.98;68.44
74103;BME280;62853;46.166;3.640;2023-07-20T07:59:03;101415.75;;;28.42;61.33
74103;BME280;62853;46.166;3.640;2023-07-20T08:01:28;101421.94;;;29.02;56.99
74103;BME280;62853;46.166;3.640;2023-07-20T08:03:54;101417.66;;;29.29;54.68
74103;BME280;62853;46.166;3.640;2023-07-20T08:06:19;101413.81;;;29.95;52.42
74103;BME280;62853;46.166;3.640;2023-07-20T08:08:44;101416.75;;;30.63;49.90
74103;BME280;62853;46.166;3.640;2023-07-20T08:11:10;101419.97;;;30.93;47.73
74103;BME280;62853;46.166;3.640;2023-07-20T08:13:36;101419.47;;;30.63;48.09
74103;BME280;62853;46.166;3.640;2023-07-20T08:16:01;101421.16;;;29.94;46.63
74103;BME280;62853;46.166;3.640;2023-07-20T08:18:30;101417.84;;;29.27;48.09
74103;BME280;62853;46.166;3.640;2023-07-20T08:20:56;101414.69;;;30.02;47.32
74103;BME280;62853;46.166;3.640;2023-07-20T08:23:21;101416.69;;;30.50;45.81
74103;BME280;62853;46.166;3.640;2023-07-20T08:25:46;101412.50;;;31.02;44.12
74103;BME280;62853;46.166;3.640;2023-07-20T08:28:14;101413.63;;;31.68;44.20
74103;BME280;62853;46.166;3.640;2023-07-20T08:30:44;101415.16;;;30.89;43.29
74103;BME280;62853;46.166;3.640;2023-07-20T08:33:12;101416.09;;;29.91;43.53
74103;BME280;62853;46.166;3.640;2023-07-20T08:35:37;101416.63;;;28.57;45.34
74103;BME280;62853;46.166;3.640;2023-07-20T08:38:03;101419.97;;;27.61;50.51
74103;BME280;62853;46.166;3.640;2023-07-20T08:40:38;101427.16;;;26.91;52.30
74103;BME280;62853;46.166;3.640;2023-07-20T08:43:04;101418.84;;;26.14;53.76
74103;BME280;62853;46.166;3.640;2023-07-20T08:45:34;101418.00;;;27.01;53.59
74103;BME280;62853;46.166;3.640;2023-07-20T08:48:01;101406.06;;;29.63;49.69
74103;BME280;62853;46.166;3.640;2023-07-20T08:50:34;101407.56;;;31.66;45.06
74103;BME280;62853;46.166;3.640;2023-07-20T08:53:01;101404.44;;;33.82;37.98
74103;BME280;62853;46.166;3.640;2023-07-20T08:55:28;101399.88;;;35.29;37.71
74103;BME280;62853;46.166;3.640;2023-07-20T08:57:54;101397.50;;;36.27;34.48
74103;BME280;62853;46.166;3.640;2023-07-20T09:00:23;101396.09;;;37.11;31.65
74103;BME280;62853;46.166;3.640;2023-07-20T09:02:50;101397.31;;;37.88;29.32
74103;BME280;62853;46.166;3.640;2023-07-20T09:05:17;101398.78;;;37.73;28.01
74103;BME280;62853;46.166;3.640;2023-07-20T09:07:43;101398.59;;;35.79;28.35
74103;BME280;62853;46.166;3.640;2023-07-20T09:10:09;101400.78;;;33.37;33.90
74103;BME280;62853;46.166;3.640;2023-07-20T09:12:40;101393.44;;;33.88;33.79
74103;BME280;62853;46.166;3.640;2023-07-20T09:15:07;101392.34;;;35.24;30.70
74103;BME280;62853;46.166;3.640;2023-07-20T09:17:34;101375.44;;;36.22;32.27
74103;BME280;62853;46.166;3.640;2023-07-20T09:20:03;101385.00;;;35.95;31.59
74103;BME280;62853;46.166;3.640;2023-07-20T09:22:33;101391.81;;;34.24;30.72
74103;BME280;62853;46.166;3.640;2023-07-20T09:24:59;101387.81;;;32.69;32.00
74103;BME280;62853;46.166;3.640;2023-07-20T09:27:42;101391.22;;;31.59;37.24
74103;BME280;62853;46.166;3.640;2023-07-20T09:30:08;101394.94;;;30.50;38.58
74103;BME280;62853;46.166;3.640;2023-07-20T09:32:47;101388.09;;;29.62;40.26
74103;BME280;62853;46.166;3.640;2023-07-20T09:35:17;101393.59;;;28.68;40.25
74103;BME280;62853;46.166;3.640;2023-07-20T09:38:04;101394.94;;;27.97;42.35
74103;BME280;62853;46.166;3.640;2023-07-20T09:40:29;101389.25;;;27.31;45.45
74103;BME280;62853;46.166;3.640;2023-07-20T09:42:55;101389.03;;;26.86;43.83
74103;BME280;62853;46.166;3.640;2023-07-20T09:45:29;101387.38;;;26.38;42.61
74103;BME280;62853;46.166;3.640;2023-07-20T09:48:03;101375.97;;;28.27;42.33
74103;BME280;62853;46.166;3.640;2023-07-20T09:50:30;101375.81;;;29.17;41.25
74103;BME280;62853;46.166;3.640;2023-07-20T09:52:56;101375.53;;;28.09;40.22
74103;BME280;62853;46.166;3.640;2023-07-20T09:55:22;101368.97;;;27.50;43.00
74103;BME280;62853;46.166;3.640;2023-07-20T09:57:49;101372.47;;;27.13;45.99
74103;BME280;62853;46.166;3.640;2023-07-20T10:00:15;101376.59;;;27.23;46.73
74103;BME280;62853;46.166;3.640;2023-07-20T10:02:45;101367.81;;;26.98;46.07
74103;BME280;62853;46.166;3.640;2023-07-20T10:05:15;101368.38;;;26.94;46.38
74103;BME280;62853;46.166;3.640;2023-07-20T10:07:47;101367.75;;;27.38;43.27
74103;BME280;62853;46.166;3.640;2023-07-20T10:10:16;101367.50;;;27.48;43.40
74103;BME280;62853;46.166;3.640;2023-07-20T10:12:42;101365.38;;;27.58;43.85
74103;BME280;62853;46.166;3.640;2023-07-20T10:17:53;101367.38;;;26.63;46.03
74103;BME280;62853;46.166;3.640;2023-07-20T10:20:23;101367.59;;;25.89;45.04
74103;BME280;62853;46.166;3.640;2023-07-20T10:22:53;101368.59;;;25.88;50.56
74103;BME280;62853;46.166;3.640;2023-07-20T10:25:20;101361.38;;;26.76;47.50
74103;BME280;62853;46.166;3.640;2023-07-20T10:27:48;101353.56;;;27.36;47.71
74103;BME280;62853;46.166;3.640;2023-07-20T10:30:13;101352.44;;;27.45;46.40
74103;BME280;62853;46.166;3.640;2023-07-20T10:32:40;101356.75;;;27.39;46.28
74103;BME280;62853;46.166;3.640;2023-07-20T10:35:17;101352.34;;;28.87;46.06
74103;BME280;62853;46.166;3.640;2023-07-20T10:37:49;101352.59;;;28.92;39.70
74103;BME280;62853;46.166;3.640;2023-07-20T10:40:33;101352.75;;;28.69;44.72
74103;BME280;62853;46.166;3.640;2023-07-20T10:43:03;101355.66;;;28.53;44.49
74103;BME280;62853;46.166;3.640;2023-07-20T10:48:14;101354.59;;;28.32;44.93
74103;BME280;62853;46.166;3.640;2023-07-20T10:50:45;101348.81;;;28.06;42.39
74103;BME280;62853;46.166;3.640;2023-07-20T10:53:16;101347.88;;;27.45;43.48
74103;BME280;62853;46.166;3.640;2023-07-20T10:55:42;101342.13;;;26.79;43.44
74103;BME280;62853;46.166;3.640;2023-07-20T10:58:14;101347.78;;;26.22;46.68
74103;BME280;62853;46.166;3.640;2023-07-20T11:00:58;101340.47;;;25.83;47.09
74103;BME280;62853;46.166;3.640;2023-07-20T11:03:32;101337.31;;;25.46;48.11
74103;BME280;62853;46.166;3.640;2023-07-20T11:05:58;101336.31;;;25.31;47.19
74103;BME280;62853;46.166;3.640;2023-07-20T11:08:43;101337.13;;;25.31;48.92
74103;BME280;62853;46.166;3.640;2023-07-20T11:11:27;101338.31;;;25.20;50.91
74103;BME280;62853;46.166;3.640;2023-07-20T11:14:03;101330.88;;;25.06;49.29
74103;BME280;62853;46.166;3.640;2023-07-20T11:16:49;101336.63;;;25.11;50.52
74103;BME280;62853;46.166;3.640;2023-07-20T11:21:46;101320.28;;;25.46;52.00
74103;BME280;62853;46.166;3.640;2023-07-20T11:24:12;101327.50;;;25.61;48.39
74103;BME280;62853;46.166;3.640;2023-07-20T11:29:10;101320.13;;;25.31;48.64
74103;BME280;62853;46.166;3.640;2023-07-20T11:31:41;101331.72;;;24.98;53.34
74103;BME280;62853;46.166;3.640;2023-07-20T11:34:14;101328.66;;;24.77;54.68
74103;BME280;62853;46.166;3.640;2023-07-20T11:36:41;101319.63;;;24.43;50.14
74103;BME280;62853;46.166;3.640;2023-07-20T11:39:11;101320.25;;;24.29;55.56
74103;BME280;62853;46.166;3.640;2023-07-20T11:41:37;101321.28;;;24.36;55.01
74103;BME280;62853;46.166;3.640;2023-07-20T11:44:04;101317.78;;;24.52;56.03
74103;BME280;62853;46.166;3.640;2023-07-20T11:46:31;101315.72;;;25.38;59.03
74103;BME280;62853;46.166;3.640;2023-07-20T11:48:58;101310.78;;;25.74;51.39
74103;BME280;62853;46.166;3.640;2023-07-20T11:51:28;101310.94;;;25.97;46.92
74103;BME280;62853;46.166;3.640;2023-07-20T11:53:54;101316.47;;;26.04;49.79
74103;BME280;62853;46.166;3.640;2023-07-20T11:56:19;101310.53;;;26.09;47.95
74103;BME280;62853;46.166;3.640;2023-07-20T11:58:45;101301.19;;;26.28;50.34
74103;BME280;62853;46.166;3.640;2023-07-20T12:01:14;101300.94;;;26.38;50.79
74103;BME280;62853;46.166;3.640;2023-07-20T12:03:42;101311.56;;;26.08;45.81
74103;BME280;62853;46.166;3.640;2023-07-20T12:06:10;101312.66;;;26.30;47.33
74103;BME280;62853;46.166;3.640;2023-07-20T12:08:43;101310.03;;;26.45;49.26
74103;BME280;62853;46.166;3.640;2023-07-20T12:11:09;101300.94;;;26.38;46.65
74103;BME280;62853;46.166;3.640;2023-07-20T12:13:40;101298.16;;;26.31;48.06
74103;BME280;62853;46.166;3.640;2023-07-20T12:16:17;101301.03;;;26.29;51.76
74103;BME280;62853;46.166;3.640;2023-07-20T12:18:43;101302.06;;;26.20;47.10
74103;BME280;62853;46.166;3.640;2023-07-20T12:21:09;101303.00;;;25.88;45.43
74103;BME280;62853;46.166;3.640;2023-07-20T12:23:37;101297.47;;;25.73;49.69
74103;BME280;62853;46.166;3.640;2023-07-20T12:26:06;101309.00;;;25.42;47.91
74103;BME280;62853;46.166;3.640;2023-07-20T12:28:31;101304.78;;;25.23;55.63
74103;BME280;62853;46.166;3.640;2023-07-20T12:30:57;101303.59;;;25.09;54.35
74103;BME280;62853;46.166;3.640;2023-07-20T12:33:22;101305.75;;;24.89;54.28
74103;BME280;62853;46.166;3.640;2023-07-20T12:35:48;101304.88;;;24.56;55.08
74103;BME280;62853;46.166;3.640;2023-07-20T12:38:14;101309.53;;;24.45;54.36
74103;BME280;62853;46.166;3.640;2023-07-20T12:40:41;101302.56;;;24.26;55.05
74103;BME280;62853;46.166;3.640;2023-07-20T12:43:06;101312.13;;;24.21;57.75
74103;BME280;62853;46.166;3.640;2023-07-20T12:45:32;101309.22;;;24.06;57.03
74103;BME280;62853;46.166;3.640;2023-07-20T12:47:58;101306.28;;;23.91;56.09
74103;BME280;62853;46.166;3.640;2023-07-20T12:50:23;101309.19;;;23.71;56.17
74103;BME280;62853;46.166;3.640;2023-07-20T12:52:49;101304.78;;;23.70;57.48
74103;BME280;62853;46.166;3.640;2023-07-20T12:55:14;101303.91;;;23.62;56.19
74103;BME280;62853;46.166;3.640;2023-07-20T12:57:40;101298.53;;;23.62;56.42
74103;BME280;62853;46.166;3.640;2023-07-20T13:00:08;101295.56;;;23.73;62.45